Time;durP1;ratioP1;P1;durP2;ratioP2;P2;SDS_P1;SDS_P2;PMS_P1;PMS_P2;Temp;Humidity;BMP_temperature;BMP_pressure;BME280_temperature;BME280_humidity;BME280_pressure;Samples;Min_cycle;Max_cycle;Signal;HPM_P1;HPM_P2
2022/10/01 00:00:14;;;;;;;7.22;3.03;;;11.30;99.90;;;;;;4986270;28;20406;-69
2022/10/01 00:02:40;;;;;;;8.60;3.22;;;11.20;99.90;;;;;;4981563;28;20068;-71
2022/10/01 00:05:06;;;;;;;5.50;2.85;;;11.20;99.90;;;;;;4985235;28;20069;-69
2022/10/01 00:07:40;;;;;;;4.70;2.90;;;11.20;99.90;;;;;;4984846;28;20046;-69
2022/10/01 00:10:06;;;;;;;6.47;2.75;;;11.20;99.90;;;;;;4979918;28;20039;-70
2022/10/01 00:12:33;;;;;;;7.25;2.70;;;11.20;99.90;;;;;;4983252;28;20045;-70
2022/10/01 00:14:58;;;;;;;6.22;3.28;;;11.20;99.90;;;;;;4980852;28;20042;-71
2022/10/01 00:17:24;;;;;;;7.53;2.70;;;11.30;99.90;;;;;;4965366;28;20039;-69
2022/10/01 00:19:49;;;;;;;4.93;2.53;;;11.20;99.90;;;;;;4983468;28;20038;-70
2022/10/01 00:22:17;;;;;;;7.32;2.72;;;11.20;99.90;;;;;;4980747;28;20042;-71
2022/10/01 00:24:44;;;;;;;7.43;2.50;;;11.20;99.90;;;;;;4978678;28;20042;-71
2022/10/01 00:27:11;;;;;;;4.28;2.30;;;11.30;99.90;;;;;;4984879;28;20057;-71
2022/10/01 00:29:37;;;;;;;4.88;2.67;;;11.30;99.90;;;;;;4984465;28;20125;-70
2022/10/01 00:32:03;;;;;;;3.80;2.40;;;11.30;99.90;;;;;;4980727;28;20422;-70
2022/10/01 00:34:28;;;;;;;3.90;2.15;;;11.20;99.90;;;;;;4982932;28;20031;-70
2022/10/01 00:36:54;;;;;;;7.97;2.50;;;11.20;99.90;;;;;;4982950;28;20031;-70
2022/10/01 00:39:20;;;;;;;5.30;2.40;;;11.20;99.90;;;;;;4983907;28;20089;-73
2022/10/01 00:41:45;;;;;;;5.00;2.65;;;11.20;99.90;;;;;;4973910;28;20128;-70
2022/10/01 00:44:34;;;;;;;7.07;2.88;;;11.20;99.90;;;;;;4982488;28;20089;-69
2022/10/01 00:47:27;;;;;;;5.05;2.25;;;11.30;99.90;;;;;;4979417;28;20035;-69
2022/10/01 00:49:57;;;;;;;6.03;2.22;;;11.30;99.90;;;;;;4982211;28;20038;-70
2022/10/01 00:52:27;;;;;;;3.50;1.85;;;11.30;99.90;;;;;;4978628;28;20496;-69
2022/10/01 00:55:02;;;;;;;4.15;2.45;;;11.30;99.90;;;;;;4987503;28;20052;-71
2022/10/01 00:57:28;;;;;;;8.35;2.08;;;11.30;99.90;;;;;;4979558;28;20030;-69
2022/10/01 00:59:58;;;;;;;4.93;2.20;;;11.20;99.90;;;;;;4984135;28;20030;-70
2022/10/01 01:02:24;;;;;;;4.97;2.10;;;11.30;99.90;;;;;;4980233;28;20038;-69
2022/10/01 01:04:50;;;;;;;2.95;1.98;;;11.30;99.90;;;;;;4978475;28;20378;-69
2022/10/01 01:07:15;;;;;;;5.10;2.10;;;11.30;99.90;;;;;;4982802;28;20702;-69
2022/10/01 01:09:48;;;;;;;2.67;1.80;;;11.20;99.90;;;;;;4983594;28;20058;-70
2022/10/01 01:12:43;;;;;;;4.28;1.83;;;11.30;99.90;;;;;;4979624;28;20038;-68
2022/10/01 01:15:35;;;;;;;3.25;1.80;;;11.20;99.90;;;;;;4972885;28;20069;-70
2022/10/01 01:18:16;;;;;;;3.70;1.88;;;11.20;99.90;;;;;;4979950;28;20036;-69
2022/10/01 01:20:55;;;;;;;4.75;2.08;;;11.20;99.90;;;;;;4979381;28;20439;-70
2022/10/01 01:24:10;;;;;;;3.28;1.90;;;11.20;99.90;;;;;;4976273;28;20039;-71
2022/10/01 01:26:59;;;;;;;5.00;1.95;;;11.30;99.90;;;;;;4972544;28;20039;-70
2022/10/01 01:29:33;;;;;;;3.85;1.80;;;11.20;99.90;;;;;;4975279;28;20030;-70
2022/10/01 01:32:07;;;;;;;2.13;1.40;;;11.20;99.90;;;;;;4978862;28;20042;-68
2022/10/01 01:34:35;;;;;;;6.75;1.90;;;11.30;99.90;;;;;;4981696;28;20114;-69
2022/10/01 01:37:10;;;;;;;5.30;1.70;;;11.20;99.90;;;;;;4979969;28;20034;-70
2022/10/01 01:39:39;;;;;;;3.70;1.65;;;11.30;99.90;;;;;;4978440;28;20106;-69
2022/10/01 01:42:12;;;;;;;3.35;1.92;;;11.30;99.90;;;;;;4981821;28;20027;-69
2022/10/01 01:44:42;;;;;;;4.45;1.80;;;11.30;99.90;;;;;;4979157;28;20125;-70
2022/10/01 01:47:09;;;;;;;;;;;11.30;99.90;;;;;;4980794;28;20406;-68
2022/10/01 01:49:39;;;;;;;3.58;1.50;;;11.30;99.90;;;;;;4980123;28;20382;-69
2022/10/01 01:52:13;;;;;;;2.80;1.80;;;11.30;99.90;;;;;;4980540;28;20046;-70
2022/10/01 01:54:39;;;;;;;3.38;1.80;;;11.40;99.90;;;;;;4980966;28;20114;-69
2022/10/01 01:57:05;;;;;;;3.83;1.85;;;11.40;99.90;;;;;;4981084;28;20030;-69
2022/10/01 01:59:33;;;;;;;2.17;1.58;;;11.40;99.90;;;;;;4980245;28;20050;-69
2022/10/01 02:01:59;;;;;;;2.88;1.70;;;11.40;99.90;;;;;;4980535;28;20556;-69
2022/10/01 02:04:34;;;;;;;3.15;1.65;;;11.40;99.90;;;;;;4982785;28;20058;-68
2022/10/01 02:07:33;;;;;;;6.18;2.40;;;11.40;99.90;;;;;;4979683;28;20039;-69
2022/10/01 02:09:59;;;;;;;2.78;1.45;;;11.40;99.90;;;;;;4977375;28;20031;-69
2022/10/01 02:12:42;;;;;;;2.55;1.30;;;11.30;99.90;;;;;;4981608;28;20045;-69
2022/10/01 02:15:34;;;;;;;2.65;1.42;;;11.40;99.90;;;;;;4979535;28;20043;-69
2022/10/01 02:18:16;;;;;;;2.97;1.55;;;11.40;99.90;;;;;;4977114;28;20041;-71
2022/10/01 02:20:49;;;;;;;2.22;1.35;;;11.30;99.90;;;;;;4977612;28;20418;-69
2022/10/01 02:23:21;;;;;;;2.55;1.02;;;11.40;99.90;;;;;;4977293;28;20440;-69
2022/10/01 02:25:51;;;;;;;2.95;1.35;;;11.40;99.90;;;;;;4983553;28;20042;-69
2022/10/01 02:28:21;;;;;;;1.58;1.00;;;11.40;99.90;;;;;;4974328;28;20039;-69
2022/10/01 02:30:49;;;;;;;1.90;1.05;;;11.50;99.90;;;;;;4981634;28;20126;-68
2022/10/01 02:33:19;;;;;;;1.42;1.05;;;11.40;99.90;;;;;;4977027;28;20474;-68
2022/10/01 02:35:47;;;;;;;1.85;1.30;;;11.50;99.90;;;;;;4981064;28;20039;-69
2022/10/01 02:38:16;;;;;;;1.42;1.02;;;11.40;99.90;;;;;;4977092;28;20027;-70
2022/10/01 02:40:44;;;;;;;2.67;1.25;;;11.40;99.90;;;;;;4980780;28;20087;-69
2022/10/01 02:43:16;;;;;;;1.75;1.08;;;11.50;99.90;;;;;;4980690;28;20559;-69
2022/10/01 02:45:46;;;;;;;1.67;1.10;;;11.50;99.90;;;;;;4977960;28;20590;-69
2022/10/01 02:48:15;;;;;;;1.75;1.10;;;11.50;99.90;;;;;;4981236;28;20038;-69
2022/10/01 02:50:52;;;;;;;2.25;1.15;;;11.50;99.90;;;;;;4978318;28;20041;-69
2022/10/01 02:53:27;;;;;;;1.13;1.02;;;11.50;99.90;;;;;;4981502;28;20034;-68
2022/10/01 02:55:55;;;;;;;1.83;0.90;;;11.70;99.90;;;;;;4973933;28;20066;-69
2022/10/01 02:58:21;;;;;;;3.22;1.48;;;11.60;99.90;;;;;;4976605;28;20030;-68
2022/10/01 03:00:46;;;;;;;2.45;1.20;;;11.60;99.90;;;;;;4981248;28;20166;-69
2022/10/01 03:03:12;;;;;;;1.60;1.20;;;11.60;99.90;;;;;;4978089;28;20035;-68
2022/10/01 03:05:37;;;;;;;2.03;1.48;;;11.60;99.90;;;;;;4978755;28;20035;-69
2022/10/01 03:08:03;;;;;;;2.38;1.40;;;11.70;99.90;;;;;;4975989;28;20121;-70
2022/10/01 03:10:28;;;;;;;2.22;1.42;;;11.70;99.90;;;;;;4978098;28;20051;-69
2022/10/01 03:12:54;;;;;;;2.00;1.50;;;11.70;99.90;;;;;;4978408;28;20118;-68
2022/10/01 03:15:20;;;;;;;1.65;1.30;;;11.80;99.90;;;;;;4979904;28;20033;-69
2022/10/01 03:17:50;;;;;;;3.08;1.60;;;11.80;99.90;;;;;;4979456;28;20030;-69
2022/10/01 03:20:15;;;;;;;2.25;1.48;;;11.80;99.90;;;;;;4983779;28;20030;-69
2022/10/01 03:22:44;;;;;;;2.00;1.50;;;11.80;99.90;;;;;;4981855;28;20031;-69
2022/10/01 03:25:10;;;;;;;2.03;1.38;;;11.80;99.90;;;;;;4984756;28;20022;-69
2022/10/01 03:27:35;;;;;;;3.90;1.90;;;11.80;99.90;;;;;;4983203;28;20097;-68
2022/10/01 03:30:01;;;;;;;7.05;2.00;;;11.80;99.90;;;;;;4978456;28;20034;-69
2022/10/01 03:32:26;;;;;;;2.50;1.63;;;11.90;99.90;;;;;;4987476;28;20495;-69
2022/10/01 03:34:52;;;;;;;2.25;1.80;;;11.80;99.90;;;;;;4988194;28;20072;-69
2022/10/01 03:37:18;;;;;;;3.53;1.73;;;11.90;99.90;;;;;;4981464;28;20089;-69
2022/10/01 03:39:43;;;;;;;2.70;1.85;;;11.90;99.90;;;;;;4984553;28;20042;-69
2022/10/01 03:42:09;;;;;;;2.67;1.77;;;11.90;99.90;;;;;;4981491;28;20027;-70
2022/10/01 03:44:34;;;;;;;3.60;2.28;;;12.00;99.90;;;;;;4983126;28;20046;-69
2022/10/01 03:47:00;;;;;;;3.10;1.73;;;11.90;99.90;;;;;;4981445;28;20124;-70
2022/10/01 03:49:26;;;;;;;2.35;2.10;;;12.00;99.90;;;;;;4982429;28;20046;-70
2022/10/01 03:51:52;;;;;;;3.63;1.77;;;12.00;99.90;;;;;;4983447;28;20030;-70
2022/10/01 03:54:19;;;;;;;2.50;2.00;;;12.00;99.90;;;;;;4981145;28;20427;-70
2022/10/01 03:56:44;;;;;;;2.90;2.08;;;12.00;99.90;;;;;;4984056;28;20430;-70
2022/10/01 03:59:10;;;;;;;2.28;1.70;;;12.00;99.90;;;;;;4983036;28;20050;-70
2022/10/01 04:01:37;;;;;;;3.33;2.15;;;12.10;99.90;;;;;;4980885;28;20053;-70
2022/10/01 04:04:03;;;;;;;3.20;1.83;;;12.10;99.90;;;;;;4983038;28;20098;-70
2022/10/01 04:06:29;;;;;;;4.32;1.65;;;12.10;99.90;;;;;;4981935;28;20046;-71
2022/10/01 04:08:55;;;;;;;3.28;1.80;;;12.10;99.90;;;;;;4980647;28;20113;-71
2022/10/01 04:11:21;;;;;;;1.92;1.73;;;12.10;99.90;;;;;;4982241;28;20118;-70
2022/10/01 04:13:46;;;;;;;2.70;1.80;;;12.10;99.90;;;;;;4980008;28;20070;-70
2022/10/01 04:16:12;;;;;;;3.38;2.00;;;12.10;99.90;;;;;;4982555;28;20038;-70
2022/10/01 04:18:38;;;;;;;2.63;1.58;;;12.10;99.90;;;;;;4980400;28;20450;-71
2022/10/01 04:21:04;;;;;;;2.00;1.55;;;12.10;99.90;;;;;;4981823;28;20031;-70
2022/10/01 04:23:29;;;;;;;2.55;1.40;;;12.20;99.90;;;;;;4981233;28;20111;-71
2022/10/01 04:25:59;;;;;;;4.68;1.95;;;12.20;99.90;;;;;;4984348;28;20486;-70
2022/10/01 04:28:24;;;;;;;2.05;1.13;;;12.30;99.90;;;;;;4981730;28;20406;-70
2022/10/01 04:31:23;;;;;;;2.03;1.38;;;12.30;99.90;;;;;;4979246;28;20066;-70
2022/10/01 04:33:35;;;;;;;3.53;1.52;;;12.30;99.90;;;;;;4982326;28;20081;-70
2022/10/01 04:36:01;;;;;;;2.60;1.35;;;12.30;99.90;;;;;;4982464;28;20031;-70
2022/10/01 04:38:26;;;;;;;2.78;1.25;;;12.30;99.90;;;;;;4981428;28;20109;-74
2022/10/01 04:40:52;;;;;;;5.32;1.70;;;12.40;99.90;;;;;;4981317;28;20034;-70
2022/10/01 04:43:17;;;;;;;3.40;1.55;;;12.30;99.90;;;;;;4982848;28;20049;-70
2022/10/01 04:45:43;;;;;;;3.88;1.92;;;12.30;99.90;;;;;;4979549;28;20553;-70
2022/10/01 04:48:08;;;;;;;4.45;1.70;;;12.30;99.90;;;;;;4982190;28;20479;-69
2022/10/01 04:50:34;;;;;;;2.88;1.90;;;12.40;99.90;;;;;;4979676;28;20495;-70
2022/10/01 04:53:00;;;;;;;3.10;1.70;;;12.30;99.90;;;;;;4982349;28;20038;-70
2022/10/01 04:55:25;;;;;;;2.60;1.80;;;12.30;99.90;;;;;;4980098;28;20031;-70
2022/10/01 04:57:51;;;;;;;3.53;1.63;;;12.40;99.90;;;;;;4978826;28;20197;-69
2022/10/01 05:00:19;;;;;;;5.05;1.90;;;12.40;99.90;;;;;;4981376;28;20035;-70
2022/10/01 05:02:46;;;;;;;2.33;1.70;;;12.40;99.90;;;;;;4979724;28;20023;-69
2022/10/01 05:05:12;;;;;;;4.47;2.00;;;12.40;99.90;;;;;;4981839;28;20053;-70
2022/10/01 05:07:39;;;;;;;1.98;1.50;;;12.50;99.90;;;;;;4975321;28;20468;-70
2022/10/01 05:10:06;;;;;;;2.38;1.70;;;12.50;99.90;;;;;;4982769;28;20034;-70
2022/10/01 05:12:31;;;;;;;2.83;2.10;;;12.60;99.90;;;;;;4979495;28;20039;-71
2022/10/01 05:14:57;;;;;;;4.72;1.77;;;12.60;99.90;;;;;;4981219;28;20038;-70
2022/10/01 05:17:23;;;;;;;3.20;1.80;;;12.50;99.90;;;;;;4981419;28;20112;-70
2022/10/01 05:19:49;;;;;;;3.90;1.70;;;12.50;99.90;;;;;;4978562;28;20038;-70
2022/10/01 05:22:15;;;;;;;5.10;2.20;;;12.40;99.90;;;;;;4982403;28;20053;-70
2022/10/01 05:24:42;;;;;;;3.03;1.50;;;12.40;99.90;;;;;;4978685;28;20045;-69
2022/10/01 05:27:11;;;;;;;1.92;0.95;;;12.40;99.90;;;;;;4980476;28;20364;-70
2022/10/01 05:29:37;;;;;;;3.40;1.52;;;12.30;99.90;;;;;;4981170;28;20030;-70
2022/10/01 05:32:03;;;;;;;5.35;1.70;;;12.30;99.90;;;;;;4982622;28;20037;-70
2022/10/01 05:34:28;;;;;;;2.97;1.67;;;12.30;99.90;;;;;;4980838;28;20054;-70
2022/10/01 05:36:54;;;;;;;3.40;1.48;;;12.30;99.90;;;;;;4979218;28;20041;-70
2022/10/01 05:39:20;;;;;;;5.80;1.58;;;12.30;99.90;;;;;;4980330;28;20049;-70
2022/10/01 05:41:45;;;;;;;3.75;1.80;;;12.20;99.90;;;;;;4981430;28;20089;-70
2022/10/01 05:44:11;;;;;;;2.25;1.50;;;12.20;99.90;;;;;;4982405;28;20042;-69
2022/10/01 05:46:36;;;;;;;3.38;1.65;;;12.20;99.90;;;;;;4978273;28;20034;-69
2022/10/01 05:49:02;;;;;;;4.47;2.28;;;12.20;99.90;;;;;;4980530;28;20022;-70
2022/10/01 05:51:29;;;;;;;2.15;1.17;;;12.20;99.90;;;;;;4977966;28;20057;-70
2022/10/01 05:53:54;;;;;;;2.63;1.60;;;12.10;99.90;;;;;;4978233;28;20799;-70
2022/10/01 05:56:20;;;;;;;3.83;1.80;;;12.10;99.90;;;;;;4982257;28;20066;-70
2022/10/01 05:58:46;;;;;;;3.55;2.00;;;12.10;99.90;;;;;;4981004;28;20482;-71
2022/10/01 06:01:12;;;;;;;2.72;1.70;;;12.10;99.90;;;;;;4977831;28;20053;-69
2022/10/01 06:03:38;;;;;;;4.35;1.70;;;12.10;99.90;;;;;;4984069;28;20034;-69
2022/10/01 06:06:04;;;;;;;4.88;1.70;;;12.10;99.90;;;;;;4977330;28;20042;-69
2022/10/01 06:08:34;;;;;;;5.55;1.80;;;12.10;99.90;;;;;;4980883;28;20030;-70
2022/10/01 06:11:01;;;;;;;7.28;2.63;;;12.10;99.90;;;;;;4980445;28;20512;-70
2022/10/01 06:13:28;;;;;;;3.25;1.73;;;12.10;99.90;;;;;;4981606;28;20031;-70
2022/10/01 06:15:53;;;;;;;5.63;1.73;;;12.10;99.90;;;;;;4978234;28;20090;-70
2022/10/01 06:18:19;;;;;;;6.55;1.88;;;12.10;99.90;;;;;;4979488;28;20475;-70
2022/10/01 06:20:44;;;;;;;7.78;1.67;;;12.10;99.90;;;;;;4980493;28;20026;-70
2022/10/01 06:23:12;;;;;;;2.72;1.58;;;12.10;99.90;;;;;;4978408;28;20042;-70
2022/10/01 06:25:39;;;;;;;5.55;1.75;;;12.10;99.90;;;;;;4982856;28;20398;-70
2022/10/01 06:28:09;;;;;;;4.82;1.45;;;12.10;99.90;;;;;;4977353;28;20516;-70
2022/10/01 06:30:37;;;;;;;6.15;1.95;;;12.10;99.90;;;;;;4976276;28;20116;-71
2022/10/01 06:33:13;;;;;;;5.90;1.52;;;12.20;99.90;;;;;;4974094;28;20019;-70
2022/10/01 06:35:44;;;;;;;6.13;1.98;;;12.20;99.90;;;;;;4979704;28;20031;-71
2022/10/01 06:38:10;;;;;;;5.40;2.13;;;12.30;99.90;;;;;;4978628;28;20579;-69
2022/10/01 06:40:36;;;;;;;3.80;2.20;;;12.30;99.90;;;;;;4980910;28;20112;-70
2022/10/01 06:43:02;;;;;;;6.43;2.22;;;12.30;99.90;;;;;;4976673;28;20034;-70
2022/10/01 06:45:29;;;;;;;5.60;1.85;;;12.40;99.90;;;;;;4979300;28;20041;-70
2022/10/01 06:48:02;;;;;;;5.57;2.35;;;12.40;99.90;;;;;;4978951;28;20038;-69
2022/10/01 06:50:29;;;;;;;3.33;1.80;;;12.60;99.90;;;;;;4978838;28;20507;-71
2022/10/01 06:52:56;;;;;;;9.23;1.92;;;12.80;99.90;;;;;;4977036;28;20026;-70
2022/10/01 06:55:25;;;;;;;6.25;2.10;;;13.00;99.90;;;;;;4980002;28;20054;-70
2022/10/01 06:57:58;;;;;;;3.53;1.80;;;13.10;99.90;;;;;;4980806;28;20035;-71
2022/10/01 07:00:26;;;;;;;7.07;1.38;;;13.20;99.90;;;;;;4977808;28;20046;-70
2022/10/01 07:02:53;;;;;;;5.47;1.70;;;13.30;99.90;;;;;;4982158;28;20034;-70
2022/10/01 07:05:18;;;;;;;6.03;1.60;;;13.30;99.90;;;;;;4978140;28;20479;-71
2022/10/01 07:07:44;;;;;;;3.13;1.20;;;13.30;99.90;;;;;;4978000;28;20045;-69
2022/10/01 07:10:11;;;;;;;7.00;1.40;;;13.30;99.90;;;;;;4977487;28;20046;-70
2022/10/01 07:12:37;;;;;;;4.25;1.45;;;13.20;99.90;;;;;;4977389;28;20038;-71
2022/10/01 07:15:04;;;;;;;5.07;1.70;;;13.20;99.90;;;;;;4979903;28;20101;-70
2022/10/01 07:17:30;;;;;;;6.88;2.08;;;13.10;99.90;;;;;;4973448;28;20027;-71
2022/10/01 07:19:56;;;;;;;5.68;1.70;;;13.10;99.90;;;;;;4979253;28;20042;-70
2022/10/01 07:22:23;;;;;;;6.78;1.95;;;13.20;99.90;;;;;;4978728;28;20046;-70
2022/10/01 07:24:49;;;;;;;5.97;1.58;;;13.20;99.90;;;;;;4979147;28;20054;-70
2022/10/01 07:27:14;;;;;;;7.70;2.10;;;13.30;99.90;;;;;;4981886;28;20052;-70
2022/10/01 07:29:40;;;;;;;6.35;1.52;;;13.30;99.90;;;;;;4987009;28;20034;-70
2022/10/01 07:32:08;;;;;;;4.57;1.80;;;13.30;99.90;;;;;;4976646;28;20038;-71
2022/10/01 07:34:35;;;;;;;10.68;1.80;;;13.30;99.90;;;;;;4982672;28;20137;-70
2022/10/01 07:37:03;;;;;;;5.55;2.13;;;13.40;99.90;;;;;;4983652;28;20060;-71
2022/10/01 07:39:29;;;;;;;5.20;2.10;;;13.50;99.90;;;;;;4980848;28;20080;-70
2022/10/01 07:41:55;;;;;;;3.90;1.58;;;13.50;99.90;;;;;;4978917;28;20486;-70
2022/10/01 07:44:21;;;;;;;4.47;1.73;;;13.70;99.90;;;;;;4978225;28;20035;-70
2022/10/01 07:46:47;;;;;;;7.72;2.30;;;13.90;99.90;;;;;;4979048;28;20039;-70
2022/10/01 07:49:13;;;;;;;2.97;1.40;;;14.10;99.90;;;;;;4971786;28;20125;-71
2022/10/01 07:51:38;;;;;;;4.07;1.23;;;14.10;99.90;;;;;;4976732;28;20066;-71
2022/10/01 07:54:04;;;;;;;2.63;1.23;;;14.10;99.90;;;;;;4977860;28;20038;-70
2022/10/01 07:56:30;;;;;;;3.50;1.50;;;14.10;99.90;;;;;;4976177;28;20543;-71
2022/10/01 07:58:57;;;;;;;6.65;1.20;;;14.10;99.90;;;;;;4979459;28;20104;-70
2022/10/01 08:01:23;;;;;;;3.22;0.90;;;14.20;99.90;;;;;;4975507;28;20125;-70
2022/10/01 08:03:50;;;;;;;5.35;1.05;;;14.30;99.90;;;;;;4982049;28;20030;-69
2022/10/01 08:06:19;;;;;;;4.68;1.10;;;14.30;99.90;;;;;;4987407;28;20030;-69
2022/10/01 08:08:45;;;;;;;7.67;1.60;;;14.20;99.90;;;;;;4982996;28;20110;-69
2022/10/01 08:11:13;;;;;;;7.68;1.27;;;14.10;99.90;;;;;;4987830;28;20058;-71
2022/10/01 08:13:39;;;;;;;3.65;1.52;;;14.10;99.90;;;;;;4983732;28;20030;-69
2022/10/01 08:16:08;;;;;;;5.18;1.08;;;14.00;99.90;;;;;;4980459;28;20109;-70
2022/10/01 08:18:34;;;;;;;5.88;1.30;;;14.00;99.90;;;;;;4981311;28;20113;-70
2022/10/01 08:21:02;;;;;;;5.18;0.93;;;14.00;99.90;;;;;;4978353;28;20039;-69
2022/10/01 08:23:31;;;;;;;5.88;1.50;;;14.00;99.90;;;;;;4977958;28;20042;-70
2022/10/01 08:26:04;;;;;;;5.75;1.08;;;14.00;99.90;;;;;;4974656;28;20039;-70
2022/10/01 08:28:30;;;;;;;5.95;1.75;;;14.00;99.90;;;;;;4979064;28;20123;-70
2022/10/01 08:30:56;;;;;;;8.18;1.55;;;14.00;99.90;;;;;;4975587;28;20059;-69
2022/10/01 08:33:22;;;;;;;6.72;1.30;;;14.10;99.90;;;;;;4982536;28;20404;-70
2022/10/01 08:35:48;;;;;;;8.85;1.75;;;14.00;99.90;;;;;;4979757;28;20121;-70
2022/10/01 08:38:14;;;;;;;14.43;1.83;;;14.00;99.90;;;;;;4981093;28;20031;-69
2022/10/01 08:40:50;;;;;;;11.40;1.65;;;13.90;99.90;;;;;;4980604;28;20048;-70
2022/10/01 08:43:37;;;;;;;9.50;1.83;;;14.00;99.90;;;;;;4981653;28;20029;-69
2022/10/01 08:46:16;;;;;;;10.38;1.50;;;14.10;99.90;;;;;;4974780;28;20043;-70
2022/10/01 08:49:03;;;;;;;9.45;1.45;;;14.30;99.90;;;;;;4980487;28;20046;-69
2022/10/01 08:51:41;;;;;;;8.35;1.20;;;14.50;99.90;;;;;;4979370;28;20125;-72
2022/10/01 08:54:12;;;;;;;12.07;1.30;;;14.60;99.90;;;;;;4980059;28;20043;-70
2022/10/01 08:56:45;;;;;;;8.02;1.20;;;14.70;99.90;;;;;;4982054;28;20388;-72
2022/10/01 08:59:42;;;;;;;6.70;1.30;;;14.80;99.90;;;;;;4973031;28;20178;-72
2022/10/01 09:02:26;;;;;;;11.35;1.90;;;15.00;99.90;;;;;;4975529;28;20117;-71
2022/10/01 09:04:56;;;;;;;17.33;1.80;;;15.20;99.90;;;;;;4980269;28;20084;-70
2022/10/01 09:07:52;;;;;;;6.67;1.07;;;15.40;99.90;;;;;;4979133;28;20053;-72
2022/10/01 09:10:39;;;;;;;9.07;1.60;;;15.40;99.90;;;;;;4980410;28;20278;-71
2022/10/01 09:13:23;;;;;;;8.60;1.00;;;15.30;99.90;;;;;;4975127;28;20046;-71
2022/10/01 09:16:09;;;;;;;16.85;1.70;;;15.20;99.90;;;;;;4981693;28;20046;-70
2022/10/01 09:18:39;;;;;;;11.25;1.08;;;15.00;99.90;;;;;;4986882;28;20413;-69
2022/10/01 09:21:16;;;;;;;8.10;0.90;;;14.80;99.90;;;;;;4980562;28;20058;-71
2022/10/01 09:24:00;;;;;;;7.38;1.00;;;14.70;99.90;;;;;;4977382;28;20085;-71
2022/10/01 09:26:26;;;;;;;11.43;1.67;;;14.60;99.90;;;;;;4977550;28;20116;-70
2022/10/01 09:28:54;;;;;;;9.25;1.45;;;14.70;99.90;;;;;;4977432;28;20475;-71
2022/10/01 09:31:26;;;;;;;6.35;0.75;;;14.70;99.90;;;;;;4976540;28;20123;-71
2022/10/01 09:34:05;;;;;;;8.98;1.50;;;14.80;99.90;;;;;;4976078;28;20031;-71
2022/10/01 09:36:55;;;;;;;7.68;1.27;;;14.90;99.90;;;;;;4977481;28;20042;-71
2022/10/01 09:39:28;;;;;;;12.20;1.17;;;14.90;99.90;;;;;;4981176;28;20184;-68
2022/10/01 09:41:54;;;;;;;15.93;1.02;;;15.00;99.90;;;;;;4981987;28;20426;-71
2022/10/01 09:44:31;;;;;;;4.53;0.98;;;15.20;99.90;;;;;;4974023;28;20050;-72
2022/10/01 09:46:57;;;;;;;9.20;0.98;;;15.10;99.90;;;;;;4981151;28;20112;-70
2022/10/01 09:49:38;;;;;;;10.80;1.80;;;15.00;99.90;;;;;;4981530;28;20498;-70
2022/10/01 09:52:13;;;;;;;7.20;1.50;;;14.90;99.90;;;;;;4976554;28;20043;-71
2022/10/01 09:54:52;;;;;;;11.77;1.30;;;14.80;99.90;;;;;;4978640;28;20451;-70
2022/10/01 09:57:25;;;;;;;8.55;0.90;;;14.80;99.90;;;;;;4975441;28;20030;-69
2022/10/01 10:00:09;;;;;;;7.72;1.05;;;14.80;99.90;;;;;;4973193;28;20038;-69
2022/10/01 10:02:42;;;;;;;9.35;1.38;;;14.90;99.90;;;;;;4981526;28;20046;-70
2022/10/01 10:05:17;;;;;;;11.98;0.85;;;15.00;99.90;;;;;;4977852;28;20043;-69
2022/10/01 10:08:02;;;;;;;8.95;1.02;;;15.10;99.90;;;;;;4977106;28;20065;-70
2022/10/01 10:10:34;;;;;;;12.00;1.95;;;15.20;99.90;;;;;;4975526;28;20101;-74
2022/10/01 10:13:37;;;;;;;6.90;1.35;;;15.10;99.90;;;;;;4979836;28;20030;-71
2022/10/01 10:16:25;;;;;;;5.65;0.95;;;15.00;99.90;;;;;;4978689;28;20030;-71
2022/10/01 10:18:54;;;;;;;9.95;1.30;;;14.90;99.90;;;;;;4973083;28;20030;-72
2022/10/01 10:21:24;;;;;;;8.25;0.80;;;14.80;99.90;;;;;;4978536;28;20023;-69
2022/10/01 10:23:59;;;;;;;7.28;0.73;;;14.80;99.90;;;;;;4982133;28;20379;-71
2022/10/01 10:26:27;;;;;;;5.15;0.80;;;14.90;99.90;;;;;;4980489;28;20031;-71
2022/10/01 10:28:55;;;;;;;7.93;0.90;;;15.00;99.90;;;;;;4980028;28;20384;-70
2022/10/01 10:31:24;;;;;;;9.13;0.80;;;15.00;99.90;;;;;;4969092;28;20113;-70
2022/10/01 10:34:01;;;;;;;7.55;1.13;;;15.10;99.90;;;;;;4972189;28;20023;-70
2022/10/01 10:36:31;;;;;;;7.30;0.73;;;15.20;99.90;;;;;;4980435;28;20035;-72
2022/10/01 10:38:58;;;;;;;6.70;1.17;;;15.40;99.90;;;;;;4980665;28;20100;-72
2022/10/01 10:41:26;;;;;;;6.60;0.75;;;15.50;99.90;;;;;;4978258;28;20062;-70
2022/10/01 10:44:03;;;;;;;7.57;1.75;;;15.70;99.90;;;;;;4979298;28;20626;-71
2022/10/01 10:46:34;;;;;;;9.25;2.42;;;15.80;99.90;;;;;;4980394;28;20034;-72
2022/10/01 10:49:06;;;;;;;4.50;0.70;;;15.90;99.90;;;;;;4978378;28;20035;-70
2022/10/01 10:51:52;;;;;;;6.80;1.80;;;15.90;99.90;;;;;;4977449;28;20255;-72
2022/10/01 10:54:22;;;;;;;4.75;1.20;;;15.80;99.90;;;;;;4977989;28;20054;-72
2022/10/01 10:57:27;;;;;;;5.30;1.25;;;15.80;99.90;;;;;;4981529;28;20055;-69
2022/10/01 11:00:17;;;;;;;10.18;1.42;;;15.80;99.90;;;;;;4977677;28;20030;-70
2022/10/01 11:02:59;;;;;;;5.13;1.33;;;15.70;99.90;;;;;;4972082;28;20545;-72
2022/10/01 11:05:31;;;;;;;3.80;0.63;;;15.60;99.90;;;;;;4974077;28;20034;-70
2022/10/01 11:08:03;;;;;;;6.85;1.23;;;15.50;99.90;;;;;;4978730;28;20172;-70
2022/10/01 11:10:53;;;;;;;4.35;1.05;;;15.40;99.90;;;;;;4978526;28;20534;-70
2022/10/01 11:13:48;;;;;;;11.53;1.30;;;15.40;99.90;;;;;;4973963;28;20121;-71
2022/10/01 11:16:48;;;;;;;7.13;0.57;;;15.40;99.90;;;;;;4977341;28;20077;-70
2022/10/01 11:19:31;;;;;;;5.05;0.77;;;15.60;99.90;;;;;;4982936;28;20042;-69
2022/10/01 11:22:33;;;;;;;4.38;0.93;;;15.70;99.90;;;;;;4975932;28;20395;-70
2022/10/01 11:25:34;;;;;;;9.45;1.02;;;15.80;99.90;;;;;;4974224;28;20414;-69
2022/10/01 11:28:26;;;;;;;;;;;15.60;99.90;;;;;;4948764;28;20042;-70
2022/10/01 11:31:09;;;;;;;12.25;1.15;;;15.50;99.90;;;;;;4976520;28;20437;-69
2022/10/01 11:33:43;;;;;;;7.60;1.27;;;15.20;99.90;;;;;;4978196;28;20405;-71
2022/10/01 11:36:25;;;;;;;4.55;0.68;;;15.00;99.90;;;;;;4984236;28;20057;-71
2022/10/01 11:39:09;;;;;;;7.78;1.50;;;15.00;99.90;;;;;;4974867;28;20054;-71
2022/10/01 11:42:04;;;;;;;7.68;1.15;;;15.00;99.90;;;;;;4971148;28;20054;-71
2022/10/01 11:44:43;;;;;;;9.40;1.05;;;15.00;99.90;;;;;;4974080;28;20495;-70
2022/10/01 11:47:12;;;;;;;9.80;1.10;;;15.20;99.90;;;;;;4976913;28;20506;-69
2022/10/01 11:50:01;;;;;;;7.03;0.73;;;15.40;99.90;;;;;;4983307;28;20133;-72
2022/10/01 11:52:36;;;;;;;4.47;0.70;;;15.40;99.90;;;;;;4983892;28;20081;-70
2022/10/01 11:58:52;;;;;;;4.68;0.55;;;15.60;99.90;;;;;;4981630;28;20101;-69
2022/10/01 12:01:48;;;;;;;3.30;0.43;;;15.90;99.90;;;;;;4971771;28;20118;-71
2022/10/01 12:04:31;;;;;;;7.13;0.82;;;16.20;99.90;;;;;;4976824;28;20515;-68
2022/10/01 12:07:15;;;;;;;8.05;1.77;;;16.50;99.90;;;;;;4976957;28;20054;-70
2022/10/01 12:10:11;;;;;;;4.28;1.25;;;16.60;99.90;;;;;;4974504;28;20039;-71
2022/10/01 12:12:48;;;;;;;9.75;1.30;;;16.50;99.90;;;;;;4978925;28;20043;-72
2022/10/01 12:15:22;;;;;;;6.22;1.00;;;16.20;99.90;;;;;;4969426;28;20038;-69
2022/10/01 12:18:10;;;;;;;8.10;0.80;;;16.00;99.90;;;;;;4975487;28;25066;-71
2022/10/01 12:20:42;;;;;;;6.22;1.25;;;15.90;99.90;;;;;;4975244;28;20061;-70
2022/10/01 12:23:20;;;;;;;8.10;0.70;;;16.00;99.90;;;;;;4976810;28;20041;-71
2022/10/01 12:26:05;;;;;;;6.82;1.02;;;15.90;99.90;;;;;;4982398;28;20104;-71
2022/10/01 12:29:05;;;;;;;8.15;0.70;;;15.80;99.90;;;;;;4972097;28;20030;-71
2022/10/01 12:32:12;;;;;;;8.43;1.00;;;15.90;99.90;;;;;;4975303;28;20065;-71
2022/10/01 12:34:44;;;;;;;10.05;1.15;;;16.10;99.90;;;;;;4979139;28;20031;-71
2022/10/01 12:37:20;;;;;;;6.93;0.65;;;16.10;99.90;;;;;;4985338;28;20597;-71
2022/10/01 12:40:03;;;;;;;8.45;1.38;;;16.10;99.90;;;;;;4961840;28;20058;-70
2022/10/01 12:42:51;;;;;;;4.68;0.85;;;16.10;99.90;;;;;;4977177;28;20053;-71
2022/10/01 12:45:24;;;;;;;3.95;1.05;;;16.10;99.90;;;;;;4976905;28;20516;-71
2022/10/01 12:48:17;;;;;;;8.63;0.95;;;16.10;99.90;;;;;;4975749;28;20046;-72
2022/10/01 12:51:12;;;;;;;5.25;0.82;;;15.90;99.90;;;;;;4977181;28;20053;-71
2022/10/01 12:53:40;;;;;;;7.57;1.13;;;15.90;99.90;;;;;;4975949;28;20046;-70
2022/10/01 12:56:30;;;;;;;15.18;1.23;;;16.00;99.90;;;;;;4983336;28;20061;-71
2022/10/01 12:59:28;;;;;;;8.05;0.75;;;16.20;99.90;;;;;;4977324;28;20063;-71
2022/10/01 13:02:15;;;;;;;5.53;1.38;;;16.20;99.90;;;;;;4976134;28;20081;-72
2022/10/01 13:05:03;;;;;;;4.80;0.75;;;16.30;99.90;;;;;;4977847;28;20193;-71
2022/10/01 13:07:38;;;;;;;11.75;1.35;;;16.50;99.90;;;;;;4976663;28;20847;-70
2022/10/01 13:10:18;;;;;;;12.98;0.80;;;16.60;99.90;;;;;;4979074;28;20045;-70
2022/10/01 13:13:09;;;;;;;7.05;1.10;;;16.70;99.90;;;;;;4979551;28;20521;-70
2022/10/01 13:15:42;;;;;;;10.40;1.92;;;16.70;99.90;;;;;;4981174;28;20038;-70